Airfield :
LOGIN :

Register | Disclaimer

   EN    FR    IT 

 










Legend :    VFR   Marginal VFR   IFR   Intensive IFR   Very Intensive IFR
Visi :
Ceiling :
>= 8 km
>= 3000ft
5 to 8 km
1000 to 3000 ft
1500m to 5 km
500 to 1000 ft
800 to 1500m
200 to 500 ft
< 800m
< 200 ft
Symbols :   Thunderstorms  Fog  Heavy snow  Heavy precipitations  Wind > 20 kt
SIGMETs :     Misc.  Thunderstorms  Icing  Turbulence  Mountain Waves  Volcanic Ashes






- Airport Elevation : 32 ft
- IATA code : LKZ


EGUL - RAF Lakenheath

CURRENT METAR :
  • 131321Z AUTO 36013KT 9999 BKN011 BKN200 21/16 A2991 RMK AO2 RAE1256DZB1256E06 CIG 011V200 BKN011 V SCT SLP132 $

EXPIRED METARs :
  • 131256Z AUTO 35015KT 9999 -RA SCT011 20/15 A2992 RMK AO2 LTG DSNT NW RAB50 SLP135 P0000 T02020154 $
  • 131236Z AUTO 35014KT 9999 SCT011 21/16 A2992 RMK AO2 SLP135 $
  • 131221Z 34016KT 9999 BKN011 20/15 A2992 RMK AO2A SLP135 $
  • 131201Z AUTO 32013KT 9999 SCT011 20/15 A2992 RMK AO2 SLP135 $
  • 131156Z 31013KT 9999 BKN012 21/15 A2992 RMK AO2A SLP135 T02060154 10227 20178 51010 $
  • 131106Z AUTO 31010KT 9999 FEW012 21/16 A2992 RMK AO2 SLP135 $
  • 131056Z 30010KT 9999 VCTS BKN013 21/16 A2992 RMK AO2A SLP135 T02130158 $

TAF AMD TAF EGUL
Valid from the 13 at 08:00 until the 14 at 11:00 UTC


130825Z 1308/1411 36009KT 9999 SCT010 QNH2986INS
TEMPO 1309/1316 5000 -TSRA BKN020CB
BECMG 1320/1321 01009KT 9999 BKN060 QNH2980INS
BECMG 1402/1403 03009KT 1600 BR OVC003 QNH2980INS TX30/1314Z TN18/1405Z



MET'MAP, your aeronautical weather chart ! - Copyright ORBIFLY December 2007 - Disclaimer

ORBIFLY MET'MAP TEAM :

Programming & Development : Alexandra Zaïnal
Concept & original design : Baudouin d'Aumeries
Assistance for programming : Marc-Olivier Méhu
Technical & hardware support : Manuel Goepfert

Contact : metmap@orbifly.com




SOURCES & CREDITS :

   NOAA